createdAt,value
2018-04-19T00:01:54.996Z,15.10
2018-04-19T00:04:22.157Z,15.00
2018-04-19T00:06:48.619Z,15.00
2018-04-19T00:09:14.987Z,14.90
2018-04-19T00:11:41.447Z,14.70
2018-04-19T00:14:08.567Z,14.50
2018-04-19T00:16:35.050Z,14.50
2018-04-19T00:19:01.435Z,14.50
2018-04-19T00:21:27.901Z,14.50
2018-04-19T00:23:54.323Z,14.40
2018-04-19T00:26:21.472Z,14.30
2018-04-19T00:28:48.634Z,14.30
2018-04-19T00:31:15.171Z,14.20
2018-04-19T00:33:41.669Z,14.20
2018-04-19T00:36:08.031Z,14.20
2018-04-19T00:38:34.531Z,14.20
2018-04-19T00:41:00.934Z,14.10
2018-04-19T00:43:27.374Z,14.00
2018-04-19T00:45:53.856Z,13.90
2018-04-19T00:48:21.059Z,13.80
2018-04-19T00:50:47.731Z,13.80
2018-04-19T00:53:14.918Z,13.90
2018-04-19T00:55:41.306Z,13.80
2018-04-19T00:58:08.432Z,14.10
2018-04-19T01:00:34.923Z,14.10
2018-04-19T01:03:01.344Z,14.30
2018-04-19T01:05:27.807Z,14.30
2018-04-19T01:07:54.201Z,14.20
2018-04-19T01:10:21.441Z,14.10
2018-04-19T01:12:48.432Z,14.10
2018-04-19T01:15:14.856Z,14.00
2018-04-19T01:17:41.292Z,14.00
2018-04-19T01:20:07.712Z,14.10
2018-04-19T01:22:34.203Z,14.10
2018-04-19T01:25:00.575Z,14.20
2018-04-19T01:27:27.047Z,14.20
2018-04-19T01:29:53.471Z,14.10
2018-04-19T01:32:19.885Z,14.40
2018-04-19T01:34:46.306Z,14.60
2018-04-19T01:37:12.816Z,14.90
2018-04-19T01:39:40.068Z,14.80
2018-04-19T01:42:07.221Z,14.90
2018-04-19T01:44:34.395Z,14.80
2018-04-19T01:47:00.960Z,14.80
2018-04-19T01:49:27.298Z,14.70
2018-04-19T01:51:53.744Z,14.80
2018-04-19T01:54:20.156Z,14.80
2018-04-19T01:56:46.676Z,14.80
2018-04-19T01:59:13.079Z,14.80
2018-04-19T02:01:39.603Z,14.90
2018-04-19T02:04:06.768Z,14.90
2018-04-19T02:06:33.164Z,14.80
2018-04-19T02:08:59.629Z,14.70
2018-04-19T02:11:26.056Z,14.60
2018-04-19T02:13:52.500Z,14.80
2018-04-19T02:16:18.904Z,14.70
2018-04-19T02:18:46.068Z,14.70
2018-04-19T02:21:13.203Z,14.70
2018-04-19T02:23:40.360Z,14.70
2018-04-19T02:26:07.594Z,14.80
2018-04-19T02:28:34.001Z,14.80
2018-04-19T02:31:00.547Z,14.80
2018-04-19T02:33:26.945Z,14.80
2018-04-19T02:35:53.459Z,14.70
2018-04-19T02:38:19.833Z,14.70
2018-04-19T02:40:46.488Z,14.70
2018-04-19T02:43:12.858Z,14.70
2018-04-19T02:45:39.419Z,14.80
2018-04-19T02:48:05.848Z,14.70
2018-04-19T02:50:32.316Z,14.70
2018-04-19T02:52:58.712Z,14.70
2018-04-19T02:55:25.197Z,14.80
2018-04-19T02:57:52.464Z,14.80
2018-04-19T03:00:18.865Z,14.80
2018-04-19T03:02:45.428Z,14.70
2018-04-19T03:05:12.611Z,14.80
2018-04-19T03:07:39.020Z,14.80
2018-04-19T03:10:05.420Z,15.00
2018-04-19T03:12:32.640Z,14.90
2018-04-19T03:14:59.715Z,14.80
2018-04-19T03:17:26.236Z,14.70
2018-04-19T03:19:52.640Z,14.70
2018-04-19T03:22:19.127Z,14.70
2018-04-19T03:24:46.250Z,14.90
2018-04-19T03:27:12.656Z,14.90
2018-04-19T03:29:39.243Z,14.90
2018-04-19T03:32:06.363Z,15.00
2018-04-19T03:34:32.792Z,15.00
2018-04-19T03:36:59.195Z,14.90
2018-04-19T03:39:25.620Z,14.90
2018-04-19T03:41:52.041Z,14.90
2018-04-19T03:44:18.468Z,14.80
2018-04-19T03:46:44.891Z,14.80
2018-04-19T03:49:12.072Z,14.70
2018-04-19T03:51:38.520Z,14.60
2018-04-19T03:54:04.925Z,14.60
2018-04-19T03:56:31.335Z,14.60
2018-04-19T03:58:58.515Z,14.70
2018-04-19T04:01:24.933Z,14.70
2018-04-19T04:03:51.338Z,14.80
2018-04-19T04:06:18.564Z,14.70
2018-04-19T04:08:44.997Z,14.70
2018-04-19T04:11:11.395Z,14.70
2018-04-19T04:13:37.812Z,14.80
2018-04-19T04:16:04.263Z,14.70
2018-04-19T04:18:42.861Z,14.50
2018-04-19T04:21:17.392Z,14.60
2018-04-19T04:23:50.776Z,14.50
2018-04-19T04:26:17.280Z,14.50
2018-04-19T04:28:43.708Z,14.40
2018-04-19T04:31:10.252Z,14.40
2018-04-19T04:33:36.686Z,14.20
2018-04-19T04:36:03.842Z,14.10
2018-04-19T04:38:31.004Z,14.10
2018-04-19T04:40:57.427Z,14.10
2018-04-19T04:43:24.597Z,14.20
2018-04-19T04:45:51.072Z,14.20
2018-04-19T04:48:17.475Z,14.20
2018-04-19T04:50:43.992Z,14.20
2018-04-19T04:53:10.420Z,14.10
2018-04-19T04:55:36.884Z,14.20
2018-04-19T04:58:03.316Z,14.20
2018-04-19T05:00:29.819Z,14.20
2018-04-19T05:02:56.258Z,14.30
2018-04-19T05:05:22.877Z,14.40
2018-04-19T05:07:50.055Z,14.50
2018-04-19T05:10:16.556Z,14.50
2018-04-19T05:12:43.706Z,14.70
2018-04-19T05:15:11.347Z,14.70
2018-04-19T05:17:37.886Z,14.70
2018-04-19T05:20:04.291Z,14.80
2018-04-19T05:22:30.896Z,14.90
2018-04-19T05:24:57.323Z,14.90
2018-04-19T05:27:23.768Z,15.00
2018-04-19T05:29:50.187Z,15.30
2018-04-19T05:34:50.515Z,16.30
2018-04-19T05:37:17.682Z,16.60
2018-04-19T05:39:44.169Z,16.50
2018-04-19T05:42:10.593Z,16.80
2018-04-19T05:44:37.116Z,16.80
2018-04-19T05:47:03.526Z,17.00
2018-04-19T05:49:30.082Z,17.40
2018-04-19T05:51:56.489Z,17.40
2018-04-19T05:54:23.170Z,17.40
2018-04-19T05:56:49.546Z,17.40
2018-04-19T05:59:15.995Z,17.50
2018-04-19T06:01:42.451Z,17.90
2018-04-19T06:04:08.941Z,18.40
2018-04-19T06:06:35.364Z,18.80
2018-04-19T06:09:02.503Z,18.80
2018-04-19T06:11:29.691Z,19.00
2018-04-19T06:13:56.167Z,19.00
2018-04-19T06:16:22.591Z,19.00
2018-04-19T06:18:49.040Z,19.20
2018-04-19T06:21:15.424Z,19.10
2018-04-19T06:23:41.816Z,19.10
2018-04-19T06:26:08.943Z,19.50
2018-04-19T06:28:35.425Z,19.50
2018-04-19T06:31:01.826Z,19.40
2018-04-19T06:33:28.988Z,18.80
2018-04-19T06:35:55.538Z,18.80
2018-04-19T06:38:22.685Z,19.10
2018-04-19T06:40:49.117Z,19.10
2018-04-19T06:43:15.524Z,19.20
2018-04-19T06:45:42.705Z,19.50
2018-04-19T06:48:09.136Z,19.50
2018-04-19T06:50:35.520Z,19.70
2018-04-19T06:53:02.039Z,19.70
2018-04-19T06:55:28.427Z,19.70
2018-04-19T06:57:54.820Z,20.20
2018-04-19T07:00:21.228Z,19.70
2018-04-19T07:02:47.670Z,20.20
2018-04-19T07:05:14.077Z,20.20
2018-04-19T07:07:40.512Z,20.60
2018-04-19T07:10:06.969Z,20.80
2018-04-19T07:12:33.388Z,20.60
2018-04-19T07:14:59.795Z,20.70
2018-04-19T07:17:26.280Z,20.90
2018-04-19T07:19:52.735Z,21.00
2018-04-19T07:22:19.300Z,20.90
2018-04-19T07:24:45.980Z,20.90
2018-04-19T07:27:12.412Z,21.30
2018-04-19T07:29:38.866Z,20.80
2018-04-19T07:32:06.030Z,21.40
2018-04-19T07:34:33.173Z,20.90
2018-04-19T07:36:59.797Z,20.90
2018-04-19T07:39:26.983Z,21.30
2018-04-19T07:41:53.391Z,21.30
2018-04-19T07:44:20.540Z,21.90
2018-04-19T07:46:47.716Z,21.30
2018-04-19T07:49:14.129Z,21.30
2018-04-19T07:51:40.595Z,21.50
2018-04-19T07:54:07.016Z,21.50
2018-04-19T07:56:33.632Z,21.60
2018-04-19T07:59:00.027Z,21.30
2018-04-19T08:01:26.463Z,21.10
2018-04-19T08:03:52.863Z,21.10
2018-04-19T08:06:19.299Z,21.40
2018-04-19T08:08:45.689Z,21.60
2018-04-19T08:11:12.169Z,21.20
2018-04-19T08:13:38.579Z,21.30
2018-04-19T08:16:05.198Z,21.30
2018-04-19T08:18:31.647Z,21.30
2018-04-19T08:20:58.251Z,21.30
2018-04-19T08:23:25.557Z,21.70
2018-04-19T08:25:52.007Z,21.60
2018-04-19T08:28:18.512Z,21.80
2018-04-19T08:30:44.903Z,21.80
2018-04-19T08:33:12.084Z,21.70
2018-04-19T08:35:38.516Z,21.70
2018-04-19T08:38:04.886Z,21.90
2018-04-19T08:40:31.422Z,22.00
2018-04-19T08:42:57.931Z,21.90
2018-04-19T08:45:24.356Z,22.20
2018-04-19T08:47:52.761Z,22.40
2018-04-19T08:50:19.715Z,22.30
2018-04-19T08:52:46.333Z,22.00
2018-04-19T08:55:12.771Z,21.70
2018-04-19T08:57:39.167Z,21.80
2018-04-19T09:00:05.640Z,22.20
2018-04-19T09:02:32.069Z,22.30
2018-04-19T09:04:58.515Z,22.40
2018-04-19T09:07:25.707Z,22.30
2018-04-19T09:09:52.147Z,22.20
2018-04-19T09:12:18.630Z,22.60
2018-04-19T09:14:45.101Z,22.80
2018-04-19T09:17:11.583Z,22.70
2018-04-19T09:34:18.570Z,22.50
2018-04-19T09:36:45.017Z,22.50
2018-04-19T09:39:12.237Z,22.30
2018-04-19T09:41:38.869Z,22.30
2018-04-19T09:44:05.864Z,22.30
2018-04-19T09:46:32.374Z,22.60
2018-04-19T09:48:59.637Z,23.40
2018-04-19T09:51:26.868Z,23.20
2018-04-19T09:53:53.396Z,23.10
2018-04-19T09:56:19.866Z,23.40
2018-04-19T09:58:59.309Z,23.20
2018-04-19T10:01:25.904Z,23.10
2018-04-19T10:03:52.406Z,23.10
2018-04-19T10:06:18.990Z,23.20
2018-04-19T10:08:46.352Z,23.60
2018-04-19T10:11:13.625Z,23.30
2018-04-19T10:13:40.125Z,23.30
2018-04-19T10:16:06.811Z,23.40
2018-04-19T10:18:33.197Z,23.40
2018-04-19T10:20:59.700Z,23.90
2018-04-19T10:23:26.163Z,23.70
2018-04-19T10:25:53.391Z,23.90
2018-04-19T10:28:20.308Z,23.90
2018-04-19T10:30:46.745Z,23.80
2018-04-19T10:33:13.234Z,23.90
2018-04-19T10:35:39.741Z,23.80
2018-04-19T10:38:06.218Z,24.00
2018-04-19T10:40:33.413Z,24.00
2018-04-19T10:42:59.946Z,23.90
2018-04-19T10:48:22.468Z,24.60
2018-04-19T10:50:48.917Z,24.60
2018-04-19T10:53:15.308Z,24.60
2018-04-19T10:55:42.490Z,24.40
2018-04-19T10:58:08.937Z,24.40
2018-04-19T11:00:35.354Z,24.80
2018-04-19T11:03:01.745Z,25.10
2018-04-19T11:05:28.192Z,25.50
2018-04-19T11:07:55.344Z,24.70
2018-04-19T11:10:22.540Z,25.10
2018-04-19T11:12:48.928Z,25.10
2018-04-19T11:15:16.136Z,25.30
2018-04-19T11:17:42.554Z,25.30
2018-04-19T11:20:09.056Z,25.10
2018-04-19T11:22:35.496Z,24.80
2018-04-19T11:25:02.004Z,24.90
2018-04-19T11:27:29.731Z,25.10
2018-04-19T11:29:56.160Z,25.10
2018-04-19T11:32:22.592Z,25.40
2018-04-19T11:34:49.054Z,25.40
2018-04-19T11:37:16.445Z,25.20
2018-04-19T11:39:42.986Z,25.20
2018-04-19T11:42:09.411Z,25.10
2018-04-19T11:44:35.933Z,25.50
2018-04-19T11:47:02.417Z,25.70
2018-04-19T11:49:28.943Z,25.70
2018-04-19T11:51:55.380Z,26.00
2018-04-19T11:54:21.872Z,26.10
2018-04-19T11:56:49.343Z,26.10
2018-04-19T11:59:15.779Z,26.10
2018-04-19T12:01:42.205Z,26.70
2018-04-19T12:04:08.679Z,26.30
2018-04-19T12:06:35.099Z,26.40
2018-04-19T12:09:01.619Z,26.70
2018-04-19T12:11:28.092Z,26.60
2018-04-19T12:13:54.575Z,26.60
2018-04-19T12:16:20.976Z,26.50
2018-04-19T12:18:48.494Z,26.30
2018-04-19T12:21:14.932Z,26.30
2018-04-19T12:23:41.379Z,26.50
2018-04-19T12:26:07.764Z,26.70
2018-04-19T12:28:34.223Z,26.90
2018-04-19T12:31:00.637Z,26.80
2018-04-19T12:33:27.181Z,26.80
2018-04-19T12:35:53.588Z,26.60
2018-04-19T12:38:20.089Z,26.70
2018-04-19T12:40:47.379Z,27.10
2018-04-19T12:43:13.805Z,27.10
2018-04-19T12:45:40.279Z,28.10
2018-04-19T12:48:06.712Z,28.10
2018-04-19T12:50:33.220Z,27.70
2018-04-19T12:52:59.640Z,28.40
2018-04-19T12:55:26.079Z,29.40
2018-04-19T12:57:52.533Z,29.10
2018-04-19T13:00:19.002Z,28.40
2018-04-19T13:02:46.272Z,29.20
2018-04-19T13:05:12.824Z,29.10
2018-04-19T13:07:39.255Z,30.00
2018-04-19T13:10:05.697Z,30.10
2018-04-19T13:12:32.165Z,29.30
2018-04-19T13:14:58.580Z,29.00
2018-04-19T13:17:25.132Z,30.00
2018-04-19T13:19:51.594Z,31.00
2018-04-19T13:22:18.779Z,31.70
2018-04-19T13:24:45.971Z,31.60
2018-04-19T13:27:12.464Z,32.00
2018-04-19T13:29:38.881Z,31.30
2018-04-19T13:32:05.378Z,31.60
2018-04-19T13:34:31.787Z,33.10
2018-04-19T13:36:58.241Z,33.20
2018-04-19T13:39:25.514Z,31.10
2018-04-19T13:41:52.667Z,30.10
2018-04-19T13:44:19.147Z,30.10
2018-04-19T13:46:45.556Z,30.00
2018-04-19T13:49:11.996Z,30.10
2018-04-19T13:51:39.216Z,30.10
2018-04-19T13:54:05.649Z,29.10
2018-04-19T13:56:32.155Z,30.20
2018-04-19T13:58:58.599Z,30.00
2018-04-19T14:01:25.757Z,30.40
2018-04-19T14:03:52.931Z,30.00
2018-04-19T14:06:19.474Z,30.00
2018-04-19T14:08:45.920Z,30.30
2018-04-19T14:11:12.451Z,30.20
2018-04-19T14:13:38.893Z,30.30
2018-04-19T14:16:05.407Z,29.90
2018-04-19T14:18:31.885Z,29.70
2018-04-19T14:20:58.412Z,28.80
2018-04-19T14:23:24.817Z,28.90
2018-04-19T14:25:56.137Z,28.70
2018-04-19T14:28:22.635Z,30.30
2018-04-19T14:30:49.862Z,30.60
2018-04-19T14:33:16.346Z,30.60
2018-04-19T14:35:42.799Z,30.20
2018-04-19T14:38:09.226Z,29.40
2018-04-19T14:40:35.680Z,28.50
2018-04-19T14:43:02.157Z,29.40
2018-04-19T14:45:29.353Z,29.30
2018-04-19T14:47:55.848Z,29.30
2018-04-19T14:50:23.059Z,28.80
2018-04-19T14:52:49.497Z,28.70
2018-04-19T14:55:15.910Z,29.30
2018-04-19T14:57:42.396Z,29.30
2018-04-19T15:00:09.651Z,28.90
2018-04-19T15:02:36.828Z,29.90
2018-04-19T15:05:03.256Z,29.90
2018-04-19T15:07:29.791Z,30.00
2018-04-19T15:09:56.223Z,29.00
2018-04-19T15:12:22.664Z,29.60
2018-04-19T15:14:49.088Z,29.50
2018-04-19T15:17:15.500Z,29.40
2018-04-19T15:19:42.829Z,30.50
2018-04-19T15:22:09.236Z,30.50
2018-04-19T15:24:35.656Z,29.80
2018-04-19T15:27:02.050Z,30.00
2018-04-19T15:29:29.221Z,28.70
2018-04-19T15:31:55.609Z,28.70
2018-04-19T15:34:22.826Z,27.90
2018-04-19T15:36:49.348Z,28.50
2018-04-19T15:39:15.838Z,28.60
2018-04-19T15:41:43.037Z,28.00
2018-04-19T15:44:09.471Z,28.00
2018-04-19T15:46:35.972Z,27.50
2018-04-19T15:49:03.172Z,27.80
2018-04-19T15:51:29.656Z,27.80
2018-04-19T15:53:56.080Z,27.40
2018-04-19T15:56:23.272Z,27.90
2018-04-19T15:58:50.117Z,27.80
2018-04-19T16:01:16.572Z,27.90
2018-04-19T16:03:43.081Z,27.90
2018-04-19T16:06:09.535Z,27.50
2018-04-19T16:08:36.117Z,27.10
2018-04-19T16:11:02.603Z,26.70
2018-04-19T16:13:29.057Z,26.60
2018-04-19T16:15:55.478Z,26.40
2018-04-19T16:18:21.943Z,26.30
2018-04-19T16:20:50.126Z,26.00
2018-04-19T16:23:16.576Z,26.00
2018-04-19T16:25:43.007Z,25.80
2018-04-19T16:28:09.488Z,25.30
2018-04-19T16:30:35.964Z,24.90
2018-04-19T16:33:02.434Z,24.50
2018-04-19T16:35:29.030Z,24.20
2018-04-19T16:38:02.744Z,24.10
2018-04-19T16:40:29.227Z,24.00
2018-04-19T16:42:55.638Z,23.90
2018-04-19T16:45:22.045Z,23.80
2018-04-19T16:47:48.878Z,23.70
2018-04-19T16:50:15.635Z,23.60
2018-04-19T16:52:42.255Z,23.50
2018-04-19T16:55:08.721Z,23.60
2018-04-19T16:57:35.462Z,23.40
2018-04-19T17:00:01.972Z,23.40
2018-04-19T17:02:29.279Z,23.40
2018-04-19T17:04:56.571Z,23.20
2018-04-19T17:07:23.242Z,23.20
2018-04-19T17:09:49.992Z,23.10
2018-04-19T17:12:16.422Z,23.10
2018-04-19T17:14:42.962Z,23.00
2018-04-19T17:17:09.539Z,23.00
2018-04-19T17:19:35.972Z,22.90
2018-04-19T17:22:02.475Z,22.80
2018-04-19T17:24:29.763Z,22.70
2018-04-19T17:26:56.245Z,22.60
2018-04-19T17:29:22.743Z,22.60
2018-04-19T17:31:49.128Z,22.50
2018-04-19T17:34:16.235Z,22.50
2018-04-19T17:36:43.176Z,22.40
2018-04-19T17:39:09.625Z,22.50
2018-04-19T17:41:36.170Z,22.40
2018-04-19T17:44:02.639Z,22.30
2018-04-19T17:46:29.085Z,22.20
2018-04-19T17:48:55.517Z,22.10
2018-04-19T17:51:22.096Z,22.00
2018-04-19T17:53:48.524Z,21.90
2018-04-19T17:56:14.978Z,21.70
2018-04-19T17:58:41.397Z,21.60
2018-04-19T18:01:07.852Z,21.50
2018-04-19T18:03:35.817Z,21.40
2018-04-19T18:06:03.099Z,21.30
2018-04-19T18:08:29.555Z,21.20
2018-04-19T18:10:57.619Z,21.20
2018-04-19T18:13:24.109Z,21.00
2018-04-19T18:15:51.313Z,20.70
2018-04-19T18:18:17.826Z,20.70
2018-04-19T18:20:44.263Z,20.50
2018-04-19T18:23:10.796Z,20.40
2018-04-19T18:25:37.282Z,20.20
2018-04-19T18:28:03.759Z,20.00
2018-04-19T18:30:30.210Z,19.80
2018-04-19T18:32:56.740Z,19.70
2018-04-19T18:35:23.166Z,19.60
2018-04-19T18:37:50.098Z,19.40
2018-04-19T18:40:16.583Z,19.30
2018-04-19T18:42:43.033Z,19.00
2018-04-19T18:45:10.383Z,18.60
2018-04-19T18:47:37.044Z,18.60
2018-04-19T18:50:03.511Z,18.40
2018-04-19T18:52:29.997Z,18.30
2018-04-19T18:54:57.251Z,18.10
2018-04-19T18:57:23.687Z,18.00
2018-04-19T18:59:50.977Z,17.70
2018-04-19T19:02:17.666Z,17.60
2018-04-19T19:04:44.863Z,17.30
2018-04-19T19:07:11.338Z,17.20
2018-04-19T19:09:37.975Z,17.10
2018-04-19T19:12:04.431Z,16.90
2018-04-19T19:14:33.621Z,16.70
2018-04-19T19:17:13.286Z,16.70
2018-04-19T19:22:43.846Z,16.50
2018-04-19T19:25:10.436Z,16.40
2018-04-19T19:27:36.979Z,16.40
2018-04-19T19:30:04.191Z,16.30
2018-04-19T19:32:30.632Z,16.30
2018-04-19T19:34:57.176Z,16.10
2018-04-19T19:37:23.645Z,16.00
2018-04-19T19:39:50.788Z,15.80
2018-04-19T19:42:18.049Z,15.80
2018-04-19T19:44:44.612Z,15.80
2018-04-19T19:47:11.077Z,15.50
2018-04-19T19:49:37.643Z,15.50
2018-04-19T19:52:05.064Z,15.30
2018-04-19T19:54:31.602Z,15.30
2018-04-19T19:56:58.245Z,15.30
2018-04-19T19:59:25.366Z,15.10
2018-04-19T20:01:51.866Z,15.10
2018-04-19T20:04:18.453Z,15.10
2018-04-19T20:06:44.932Z,14.90
2018-04-19T20:09:12.190Z,14.70
2018-04-19T20:11:38.695Z,14.70
2018-04-19T20:14:05.128Z,14.70
2018-04-19T20:16:31.626Z,14.70
2018-04-19T20:18:58.077Z,14.50
2018-04-19T20:21:24.566Z,14.50
2018-04-19T20:23:51.197Z,14.50
2018-04-19T20:26:17.792Z,14.40
2018-04-19T20:28:44.221Z,14.30
2018-04-19T20:31:10.779Z,14.30
2018-04-19T20:33:38.000Z,14.20
2018-04-19T20:36:04.487Z,14.10
2018-04-19T20:38:30.919Z,14.00
2018-04-19T20:40:57.453Z,13.90
2018-04-19T20:43:24.349Z,13.90
2018-04-19T20:45:51.561Z,13.70
2018-04-19T20:48:19.397Z,13.70
2018-04-19T20:50:46.785Z,13.60
2018-04-19T20:53:13.224Z,13.60
2018-04-19T20:55:39.736Z,13.50
2018-04-19T20:58:06.298Z,13.50
2018-04-19T21:00:32.761Z,13.40
2018-04-19T21:03:00.661Z,13.30
2018-04-19T21:05:27.207Z,13.20
2018-04-19T21:07:53.820Z,13.10
2018-04-19T21:10:21.151Z,13.00
2018-04-19T21:12:47.600Z,13.00
2018-04-19T21:15:14.925Z,13.00
2018-04-19T21:17:41.440Z,13.00
2018-04-19T21:20:07.929Z,12.90
2018-04-19T21:22:35.088Z,12.80
2018-04-19T21:25:01.705Z,12.80
2018-04-19T21:27:28.893Z,12.60
2018-04-19T21:29:55.406Z,12.60
2018-04-19T21:32:21.853Z,12.50
2018-04-19T21:34:48.400Z,12.40
2018-04-19T21:37:15.109Z,12.30
2018-04-19T21:39:41.593Z,12.30
2018-04-19T21:42:08.066Z,12.10
2018-04-19T21:44:35.289Z,12.20
2018-04-19T21:47:08.773Z,12.20
2018-04-19T21:49:35.266Z,12.20
2018-04-19T21:52:02.538Z,12.10
2018-04-19T21:54:29.212Z,12.00
2018-04-19T21:56:55.640Z,11.90
2018-04-19T21:59:22.238Z,11.90
2018-04-19T22:01:48.669Z,11.90
2018-04-19T22:04:15.112Z,11.90
2018-04-19T22:06:41.604Z,11.90
2018-04-19T22:09:08.766Z,11.60
2018-04-19T22:11:35.317Z,11.60
2018-04-19T22:14:01.779Z,11.50
2018-04-19T22:16:28.204Z,11.50
2018-04-19T22:18:54.648Z,11.50
2018-04-19T22:21:21.162Z,11.50
2018-04-19T22:23:47.537Z,11.40
2018-04-19T22:26:14.788Z,11.30
2018-04-19T22:28:42.022Z,11.20
2018-04-19T22:31:08.520Z,11.20
2018-04-19T22:33:34.976Z,11.10
2018-04-19T22:36:01.419Z,11.10
2018-04-19T22:38:27.815Z,11.00
2018-04-19T22:40:54.207Z,11.10
2018-04-19T22:43:21.395Z,11.10
2018-04-19T22:45:47.848Z,11.10
2018-04-19T22:48:14.315Z,11.00
2018-04-19T22:50:40.763Z,10.90
2018-04-19T22:53:08.050Z,10.80
2018-04-19T22:55:34.519Z,10.80
2018-04-19T22:58:00.990Z,10.90
2018-04-19T23:00:28.269Z,10.80
2018-04-19T23:02:54.743Z,10.80
2018-04-19T23:05:21.199Z,10.70
2018-04-19T23:07:48.381Z,10.70
2018-04-19T23:10:14.805Z,10.70
2018-04-19T23:12:41.259Z,10.70
2018-04-19T23:15:07.657Z,10.60
2018-04-19T23:17:34.921Z,10.40
2018-04-19T23:20:01.365Z,10.30
2018-04-19T23:22:33.790Z,10.40
2018-04-19T23:25:00.963Z,10.20
2018-04-19T23:27:28.099Z,10.10
2018-04-19T23:29:55.285Z,10.10
2018-04-19T23:32:21.721Z,10.10
2018-04-19T23:34:48.164Z,10.10
2018-04-19T23:37:14.576Z,10.10
2018-04-19T23:39:41.039Z,10.10
2018-04-19T23:42:07.480Z,10.10
2018-04-19T23:44:33.915Z,10.20
2018-04-19T23:47:00.295Z,10.20
2018-04-19T23:49:26.784Z,10.20
2018-04-19T23:51:53.273Z,10.20
2018-04-19T23:54:19.682Z,10.20
2018-04-19T23:56:46.835Z,10.10
2018-04-19T23:59:13.991Z,10.20
